Salt Springs, Florida
Current Conditions -  °F | °C
As of 8:55 PM on Friday 24 Oct 2014 (Local Time) from KOCF Reporting Station
Clear Clear  
Wind Chill: 63°   Ceiling: Unl
Heat Index: 63°   Visibility: 10mi
Dew Point: 52°   Wind: 0mph
Humidity: 68%   Direction: NA
Pressure: 29.98"   Gusts: NA
Location:  29.3142°N, 81.8267°W
Report Text: KOCF 250055Z AUTO 00000KT 10SM CLR 17/11 A2998 RMK AO1
Loading
Personal Weather Stations






























Interactive Weather Map
Tropical Storm Tracking
New forecast layout! Learn more

10-Day Weather Forecast

Advertisements
Track Severe Weather on mobile